sensor_id;sensor_type;location;lat;lon;timestamp;P1;durP1;ratioP1;P2;durP2;ratioP2
16954;SDS011;8594;52.052;8.354;2023-03-19T00:00:29;9.27;;;5.00;;
16954;SDS011;8594;52.052;8.354;2023-03-19T00:02:56;11.00;;;5.40;;
16954;SDS011;8594;52.052;8.354;2023-03-19T00:05:25;10.57;;;5.53;;
16954;SDS011;8594;52.052;8.354;2023-03-19T00:07:52;8.50;;;4.83;;
16954;SDS011;8594;52.052;8.354;2023-03-19T00:10:19;10.27;;;4.97;;
16954;SDS011;8594;52.052;8.354;2023-03-19T00:12:45;9.87;;;5.13;;
16954;SDS011;8594;52.052;8.354;2023-03-19T00:15:12;10.20;;;5.87;;
16954;SDS011;8594;52.052;8.354;2023-03-19T00:17:40;10.60;;;5.67;;
16954;SDS011;8594;52.052;8.354;2023-03-19T00:20:07;8.97;;;5.47;;
16954;SDS011;8594;52.052;8.354;2023-03-19T00:22:38;8.23;;;5.37;;
16954;SDS011;8594;52.052;8.354;2023-03-19T00:25:05;8.30;;;5.47;;
16954;SDS011;8594;52.052;8.354;2023-03-19T00:27:33;8.17;;;4.97;;
16954;SDS011;8594;52.052;8.354;2023-03-19T00:30:01;7.30;;;4.97;;
16954;SDS011;8594;52.052;8.354;2023-03-19T00:32:28;8.73;;;4.80;;
16954;SDS011;8594;52.052;8.354;2023-03-19T00:34:57;8.63;;;4.80;;
16954;SDS011;8594;52.052;8.354;2023-03-19T00:37:24;8.83;;;5.00;;
16954;SDS011;8594;52.052;8.354;2023-03-19T00:39:52;7.13;;;5.07;;
16954;SDS011;8594;52.052;8.354;2023-03-19T00:42:20;8.37;;;4.63;;
16954;SDS011;8594;52.052;8.354;2023-03-19T00:44:47;7.57;;;4.67;;
16954;SDS011;8594;52.052;8.354;2023-03-19T00:47:13;6.70;;;4.67;;
16954;SDS011;8594;52.052;8.354;2023-03-19T00:49:40;9.17;;;5.00;;
16954;SDS011;8594;52.052;8.354;2023-03-19T00:52:07;9.83;;;4.80;;
16954;SDS011;8594;52.052;8.354;2023-03-19T00:54:34;9.27;;;5.07;;
16954;SDS011;8594;52.052;8.354;2023-03-19T00:57:03;9.23;;;4.50;;
16954;SDS011;8594;52.052;8.354;2023-03-19T00:59:29;8.10;;;4.63;;
16954;SDS011;8594;52.052;8.354;2023-03-19T01:01:56;6.83;;;4.87;;
16954;SDS011;8594;52.052;8.354;2023-03-19T01:04:23;10.43;;;5.07;;
16954;SDS011;8594;52.052;8.354;2023-03-19T01:06:50;10.67;;;5.30;;
16954;SDS011;8594;52.052;8.354;2023-03-19T01:09:17;8.10;;;4.93;;
16954;SDS011;8594;52.052;8.354;2023-03-19T01:11:44;8.30;;;5.37;;
16954;SDS011;8594;52.052;8.354;2023-03-19T01:14:12;10.70;;;5.30;;
16954;SDS011;8594;52.052;8.354;2023-03-19T01:16:41;10.23;;;5.10;;
16954;SDS011;8594;52.052;8.354;2023-03-19T01:19:08;8.73;;;4.90;;
16954;SDS011;8594;52.052;8.354;2023-03-19T01:21:36;8.77;;;5.20;;
16954;SDS011;8594;52.052;8.354;2023-03-19T01:24:03;9.10;;;5.00;;
16954;SDS011;8594;52.052;8.354;2023-03-19T01:26:30;10.67;;;5.00;;
16954;SDS011;8594;52.052;8.354;2023-03-19T01:28:57;11.37;;;4.63;;
16954;SDS011;8594;52.052;8.354;2023-03-19T01:31:25;6.57;;;4.37;;
16954;SDS011;8594;52.052;8.354;2023-03-19T01:33:52;8.20;;;4.90;;
16954;SDS011;8594;52.052;8.354;2023-03-19T01:36:19;11.17;;;5.03;;
16954;SDS011;8594;52.052;8.354;2023-03-19T01:38:46;10.03;;;5.27;;
16954;SDS011;8594;52.052;8.354;2023-03-19T01:41:13;8.60;;;4.13;;
16954;SDS011;8594;52.052;8.354;2023-03-19T01:43:41;8.50;;;4.30;;
16954;SDS011;8594;52.052;8.354;2023-03-19T01:46:11;7.37;;;4.17;;
16954;SDS011;8594;52.052;8.354;2023-03-19T01:48:49;8.07;;;5.03;;
16954;SDS011;8594;52.052;8.354;2023-03-19T01:51:19;8.70;;;4.70;;
16954;SDS011;8594;52.052;8.354;2023-03-19T01:53:52;6.93;;;4.30;;
16954;SDS011;8594;52.052;8.354;2023-03-19T01:56:24;8.40;;;4.77;;
16954;SDS011;8594;52.052;8.354;2023-03-19T01:58:57;9.07;;;4.60;;
16954;SDS011;8594;52.052;8.354;2023-03-19T02:01:34;8.00;;;4.83;;
16954;SDS011;8594;52.052;8.354;2023-03-19T02:04:09;6.47;;;4.47;;
16954;SDS011;8594;52.052;8.354;2023-03-19T02:06:38;8.33;;;4.67;;
16954;SDS011;8594;52.052;8.354;2023-03-19T02:09:06;7.37;;;4.47;;
16954;SDS011;8594;52.052;8.354;2023-03-19T02:11:34;8.50;;;4.87;;
16954;SDS011;8594;52.052;8.354;2023-03-19T02:14:02;9.53;;;4.33;;
16954;SDS011;8594;52.052;8.354;2023-03-19T02:16:29;7.00;;;4.27;;
16954;SDS011;8594;52.052;8.354;2023-03-19T02:18:56;10.53;;;4.80;;
16954;SDS011;8594;52.052;8.354;2023-03-19T02:21:26;6.93;;;4.27;;
16954;SDS011;8594;52.052;8.354;2023-03-19T02:23:54;6.33;;;4.20;;
16954;SDS011;8594;52.052;8.354;2023-03-19T02:26:31;6.30;;;4.30;;
16954;SDS011;8594;52.052;8.354;2023-03-19T02:28:59;7.53;;;4.23;;
16954;SDS011;8594;52.052;8.354;2023-03-19T02:31:28;9.27;;;4.50;;
16954;SDS011;8594;52.052;8.354;2023-03-19T02:33:58;11.50;;;5.50;;
16954;SDS011;8594;52.052;8.354;2023-03-19T02:36:28;7.67;;;5.00;;
16954;SDS011;8594;52.052;8.354;2023-03-19T02:39:02;7.67;;;5.00;;
16954;SDS011;8594;52.052;8.354;2023-03-19T02:41:33;9.20;;;5.30;;
16954;SDS011;8594;52.052;8.354;2023-03-19T02:44:06;9.53;;;4.97;;
16954;SDS011;8594;52.052;8.354;2023-03-19T02:46:37;8.73;;;4.97;;
16954;SDS011;8594;52.052;8.354;2023-03-19T02:49:03;7.33;;;4.60;;
16954;SDS011;8594;52.052;8.354;2023-03-19T02:51:30;10.47;;;5.20;;
16954;SDS011;8594;52.052;8.354;2023-03-19T02:53:57;8.53;;;5.10;;
16954;SDS011;8594;52.052;8.354;2023-03-19T02:56:24;7.53;;;5.10;;
16954;SDS011;8594;52.052;8.354;2023-03-19T02:58:53;8.67;;;4.57;;
16954;SDS011;8594;52.052;8.354;2023-03-19T03:01:20;8.83;;;5.00;;
16954;SDS011;8594;52.052;8.354;2023-03-19T03:03:46;9.40;;;4.70;;
16954;SDS011;8594;52.052;8.354;2023-03-19T03:06:13;10.60;;;4.60;;
16954;SDS011;8594;52.052;8.354;2023-03-19T03:08:42;6.10;;;4.30;;
16954;SDS011;8594;52.052;8.354;2023-03-19T03:11:09;7.73;;;4.37;;
16954;SDS011;8594;52.052;8.354;2023-03-19T03:13:35;7.80;;;4.50;;
16954;SDS011;8594;52.052;8.354;2023-03-19T03:16:04;9.10;;;4.60;;
16954;SDS011;8594;52.052;8.354;2023-03-19T03:18:32;10.20;;;4.50;;
16954;SDS011;8594;52.052;8.354;2023-03-19T03:21:00;7.77;;;4.63;;
16954;SDS011;8594;52.052;8.354;2023-03-19T03:23:27;9.47;;;4.23;;
16954;SDS011;8594;52.052;8.354;2023-03-19T03:25:54;8.33;;;4.70;;
16954;SDS011;8594;52.052;8.354;2023-03-19T03:28:21;9.73;;;3.83;;
16954;SDS011;8594;52.052;8.354;2023-03-19T03:30:48;6.63;;;4.30;;
16954;SDS011;8594;52.052;8.354;2023-03-19T03:33:17;5.53;;;4.20;;
16954;SDS011;8594;52.052;8.354;2023-03-19T03:35:43;9.77;;;4.10;;
16954;SDS011;8594;52.052;8.354;2023-03-19T03:38:10;10.23;;;4.20;;
16954;SDS011;8594;52.052;8.354;2023-03-19T03:40:37;10.37;;;4.27;;
16954;SDS011;8594;52.052;8.354;2023-03-19T03:43:05;6.20;;;4.00;;
16954;SDS011;8594;52.052;8.354;2023-03-19T03:45:33;9.43;;;4.37;;
16954;SDS011;8594;52.052;8.354;2023-03-19T03:48:00;11.03;;;4.37;;
16954;SDS011;8594;52.052;8.354;2023-03-19T03:50:28;7.83;;;4.23;;
16954;SDS011;8594;52.052;8.354;2023-03-19T03:52:55;7.13;;;4.53;;
16954;SDS011;8594;52.052;8.354;2023-03-19T03:55:22;6.27;;;4.33;;
16954;SDS011;8594;52.052;8.354;2023-03-19T03:57:49;6.97;;;4.07;;
16954;SDS011;8594;52.052;8.354;2023-03-19T04:00:16;7.73;;;4.47;;
16954;SDS011;8594;52.052;8.354;2023-03-19T04:02:43;11.00;;;4.10;;
16954;SDS011;8594;52.052;8.354;2023-03-19T04:05:11;6.67;;;3.93;;
16954;SDS011;8594;52.052;8.354;2023-03-19T04:07:39;9.73;;;4.17;;
16954;SDS011;8594;52.052;8.354;2023-03-19T04:10:06;5.97;;;3.57;;
16954;SDS011;8594;52.052;8.354;2023-03-19T04:12:35;7.00;;;4.23;;
16954;SDS011;8594;52.052;8.354;2023-03-19T04:15:03;8.97;;;4.13;;
16954;SDS011;8594;52.052;8.354;2023-03-19T04:17:31;6.37;;;3.70;;
16954;SDS011;8594;52.052;8.354;2023-03-19T04:19:58;8.63;;;4.13;;
16954;SDS011;8594;52.052;8.354;2023-03-19T04:22:25;8.93;;;4.07;;
16954;SDS011;8594;52.052;8.354;2023-03-19T04:24:53;10.80;;;4.20;;
16954;SDS011;8594;52.052;8.354;2023-03-19T04:27:20;6.23;;;3.70;;
16954;SDS011;8594;52.052;8.354;2023-03-19T04:29:47;7.20;;;4.20;;
16954;SDS011;8594;52.052;8.354;2023-03-19T04:32:15;10.43;;;4.47;;
16954;SDS011;8594;52.052;8.354;2023-03-19T04:34:41;7.30;;;3.87;;
16954;SDS011;8594;52.052;8.354;2023-03-19T04:37:09;7.37;;;3.67;;
16954;SDS011;8594;52.052;8.354;2023-03-19T04:39:36;6.83;;;3.67;;
16954;SDS011;8594;52.052;8.354;2023-03-19T04:42:05;6.27;;;3.00;;
16954;SDS011;8594;52.052;8.354;2023-03-19T04:44:32;6.50;;;3.60;;
16954;SDS011;8594;52.052;8.354;2023-03-19T04:46:58;9.83;;;3.70;;
16954;SDS011;8594;52.052;8.354;2023-03-19T04:49:25;7.90;;;3.33;;
16954;SDS011;8594;52.052;8.354;2023-03-19T04:51:52;10.70;;;3.53;;
16954;SDS011;8594;52.052;8.354;2023-03-19T04:54:20;7.63;;;3.63;;
16954;SDS011;8594;52.052;8.354;2023-03-19T04:56:47;7.80;;;3.37;;
16954;SDS011;8594;52.052;8.354;2023-03-19T04:59:15;7.73;;;3.73;;
16954;SDS011;8594;52.052;8.354;2023-03-19T05:01:42;7.20;;;3.63;;
16954;SDS011;8594;52.052;8.354;2023-03-19T05:04:09;5.77;;;3.57;;
16954;SDS011;8594;52.052;8.354;2023-03-19T05:06:36;7.33;;;3.50;;
16954;SDS011;8594;52.052;8.354;2023-03-19T05:09:03;6.77;;;3.40;;
16954;SDS011;8594;52.052;8.354;2023-03-19T05:11:31;9.73;;;4.07;;
16954;SDS011;8594;52.052;8.354;2023-03-19T05:13:59;7.57;;;4.10;;
16954;SDS011;8594;52.052;8.354;2023-03-19T05:16:27;5.97;;;3.80;;
16954;SDS011;8594;52.052;8.354;2023-03-19T05:18:54;7.50;;;3.40;;
16954;SDS011;8594;52.052;8.354;2023-03-19T05:21:21;7.60;;;3.70;;
16954;SDS011;8594;52.052;8.354;2023-03-19T05:23:48;6.30;;;4.03;;
16954;SDS011;8594;52.052;8.354;2023-03-19T05:26:16;7.03;;;4.03;;
16954;SDS011;8594;52.052;8.354;2023-03-19T05:28:43;10.47;;;4.63;;
16954;SDS011;8594;52.052;8.354;2023-03-19T05:31:10;7.17;;;4.07;;
16954;SDS011;8594;52.052;8.354;2023-03-19T05:33:38;6.87;;;3.77;;
16954;SDS011;8594;52.052;8.354;2023-03-19T05:36:05;5.80;;;3.50;;
16954;SDS011;8594;52.052;8.354;2023-03-19T05:38:33;7.07;;;3.80;;
16954;SDS011;8594;52.052;8.354;2023-03-19T05:41:02;5.67;;;3.47;;
16954;SDS011;8594;52.052;8.354;2023-03-19T05:43:30;5.17;;;3.57;;
16954;SDS011;8594;52.052;8.354;2023-03-19T05:45:57;8.73;;;3.90;;
16954;SDS011;8594;52.052;8.354;2023-03-19T05:48:24;8.43;;;3.40;;
16954;SDS011;8594;52.052;8.354;2023-03-19T05:50:52;5.83;;;3.63;;
16954;SDS011;8594;52.052;8.354;2023-03-19T05:53:20;6.00;;;3.57;;
16954;SDS011;8594;52.052;8.354;2023-03-19T05:55:48;6.57;;;3.90;;
16954;SDS011;8594;52.052;8.354;2023-03-19T05:58:14;5.97;;;3.77;;
16954;SDS011;8594;52.052;8.354;2023-03-19T06:00:41;6.30;;;3.60;;
16954;SDS011;8594;52.052;8.354;2023-03-19T06:03:08;5.80;;;3.30;;
16954;SDS011;8594;52.052;8.354;2023-03-19T06:05:36;8.43;;;3.93;;
16954;SDS011;8594;52.052;8.354;2023-03-19T06:08:05;10.13;;;4.17;;
16954;SDS011;8594;52.052;8.354;2023-03-19T06:10:32;6.40;;;3.90;;
16954;SDS011;8594;52.052;8.354;2023-03-19T06:13:00;6.77;;;4.33;;
16954;SDS011;8594;52.052;8.354;2023-03-19T06:15:27;9.07;;;4.27;;
16954;SDS011;8594;52.052;8.354;2023-03-19T06:17:53;7.20;;;3.70;;
16954;SDS011;8594;52.052;8.354;2023-03-19T06:20:20;7.40;;;4.03;;
16954;SDS011;8594;52.052;8.354;2023-03-19T06:22:47;7.20;;;4.30;;
16954;SDS011;8594;52.052;8.354;2023-03-19T06:25:15;9.17;;;4.23;;
16954;SDS011;8594;52.052;8.354;2023-03-19T06:27:42;11.90;;;4.87;;
16954;SDS011;8594;52.052;8.354;2023-03-19T06:30:09;15.43;;;4.43;;
16954;SDS011;8594;52.052;8.354;2023-03-19T06:32:37;10.20;;;4.07;;
16954;SDS011;8594;52.052;8.354;2023-03-19T06:35:05;6.50;;;3.70;;
16954;SDS011;8594;52.052;8.354;2023-03-19T06:37:32;7.03;;;3.50;;
16954;SDS011;8594;52.052;8.354;2023-03-19T06:39:59;8.90;;;4.10;;
16954;SDS011;8594;52.052;8.354;2023-03-19T06:42:28;7.80;;;3.67;;
16954;SDS011;8594;52.052;8.354;2023-03-19T06:44:55;9.53;;;3.50;;
16954;SDS011;8594;52.052;8.354;2023-03-19T06:47:22;9.80;;;3.70;;
16954;SDS011;8594;52.052;8.354;2023-03-19T06:49:50;7.20;;;3.73;;
16954;SDS011;8594;52.052;8.354;2023-03-19T06:52:16;7.03;;;3.37;;
16954;SDS011;8594;52.052;8.354;2023-03-19T06:54:43;6.87;;;3.27;;
16954;SDS011;8594;52.052;8.354;2023-03-19T06:57:10;8.93;;;4.00;;
16954;SDS011;8594;52.052;8.354;2023-03-19T06:59:38;7.67;;;3.20;;
16954;SDS011;8594;52.052;8.354;2023-03-19T07:02:05;7.07;;;3.10;;
16954;SDS011;8594;52.052;8.354;2023-03-19T07:04:35;7.07;;;3.13;;
16954;SDS011;8594;52.052;8.354;2023-03-19T07:07:02;11.07;;;4.03;;
16954;SDS011;8594;52.052;8.354;2023-03-19T07:09:29;18.00;;;7.73;;
16954;SDS011;8594;52.052;8.354;2023-03-19T07:11:57;10.93;;;3.77;;
16954;SDS011;8594;52.052;8.354;2023-03-19T07:14:23;16.17;;;6.97;;
16954;SDS011;8594;52.052;8.354;2023-03-19T07:16:52;6.70;;;3.50;;
16954;SDS011;8594;52.052;8.354;2023-03-19T07:19:19;8.20;;;4.03;;
16954;SDS011;8594;52.052;8.354;2023-03-19T07:21:46;7.47;;;3.90;;
16954;SDS011;8594;52.052;8.354;2023-03-19T07:24:13;9.40;;;3.70;;
16954;SDS011;8594;52.052;8.354;2023-03-19T07:26:40;9.20;;;3.57;;
16954;SDS011;8594;52.052;8.354;2023-03-19T07:29:08;10.13;;;3.37;;
16954;SDS011;8594;52.052;8.354;2023-03-19T07:31:36;5.83;;;3.40;;
16954;SDS011;8594;52.052;8.354;2023-03-19T07:34:04;8.63;;;3.17;;
16954;SDS011;8594;52.052;8.354;2023-03-19T07:36:31;6.17;;;2.90;;
16954;SDS011;8594;52.052;8.354;2023-03-19T07:38:58;4.80;;;3.40;;
16954;SDS011;8594;52.052;8.354;2023-03-19T07:41:25;7.97;;;4.03;;
16954;SDS011;8594;52.052;8.354;2023-03-19T07:43:55;7.20;;;4.73;;
16954;SDS011;8594;52.052;8.354;2023-03-19T07:46:22;8.93;;;2.93;;
16954;SDS011;8594;52.052;8.354;2023-03-19T07:48:49;7.17;;;3.20;;
16954;SDS011;8594;52.052;8.354;2023-03-19T07:51:18;6.07;;;2.90;;
16954;SDS011;8594;52.052;8.354;2023-03-19T07:53:45;11.30;;;3.03;;
16954;SDS011;8594;52.052;8.354;2023-03-19T07:56:12;5.37;;;3.00;;
16954;SDS011;8594;52.052;8.354;2023-03-19T07:58:39;7.97;;;3.10;;
16954;SDS011;8594;52.052;8.354;2023-03-19T08:01:06;4.97;;;3.40;;
16954;SDS011;8594;52.052;8.354;2023-03-19T08:03:33;5.47;;;3.17;;
16954;SDS011;8594;52.052;8.354;2023-03-19T08:06:00;6.80;;;3.57;;
16954;SDS011;8594;52.052;8.354;2023-03-19T08:08:29;5.50;;;3.33;;
16954;SDS011;8594;52.052;8.354;2023-03-19T08:10:58;8.00;;;3.60;;
16954;SDS011;8594;52.052;8.354;2023-03-19T08:13:26;7.90;;;3.43;;
16954;SDS011;8594;52.052;8.354;2023-03-19T08:15:53;9.10;;;3.83;;
16954;SDS011;8594;52.052;8.354;2023-03-19T08:18:20;9.03;;;3.83;;
16954;SDS011;8594;52.052;8.354;2023-03-19T08:20:48;6.60;;;3.53;;
16954;SDS011;8594;52.052;8.354;2023-03-19T08:23:15;10.77;;;3.77;;
16954;SDS011;8594;52.052;8.354;2023-03-19T08:25:43;9.03;;;3.67;;
16954;SDS011;8594;52.052;8.354;2023-03-19T08:28:10;15.20;;;4.00;;
16954;SDS011;8594;52.052;8.354;2023-03-19T08:30:37;6.70;;;3.30;;
16954;SDS011;8594;52.052;8.354;2023-03-19T08:33:05;5.47;;;3.10;;
16954;SDS011;8594;52.052;8.354;2023-03-19T08:35:32;9.07;;;4.50;;
16954;SDS011;8594;52.052;8.354;2023-03-19T08:37:59;5.60;;;4.10;;
16954;SDS011;8594;52.052;8.354;2023-03-19T08:40:26;8.20;;;4.17;;
16954;SDS011;8594;52.052;8.354;2023-03-19T08:42:55;10.03;;;4.17;;
16954;SDS011;8594;52.052;8.354;2023-03-19T08:45:22;13.47;;;4.07;;
16954;SDS011;8594;52.052;8.354;2023-03-19T08:47:49;10.90;;;4.10;;
16954;SDS011;8594;52.052;8.354;2023-03-19T08:50:16;8.83;;;4.23;;
16954;SDS011;8594;52.052;8.354;2023-03-19T08:52:43;6.03;;;4.10;;
16954;SDS011;8594;52.052;8.354;2023-03-19T08:55:10;8.73;;;4.03;;
16954;SDS011;8594;52.052;8.354;2023-03-19T08:57:38;11.80;;;4.77;;
16954;SDS011;8594;52.052;8.354;2023-03-19T09:00:07;11.23;;;4.00;;
16954;SDS011;8594;52.052;8.354;2023-03-19T09:02:35;9.13;;;4.20;;
16954;SDS011;8594;52.052;8.354;2023-03-19T09:05:02;5.57;;;3.43;;
16954;SDS011;8594;52.052;8.354;2023-03-19T09:07:29;6.30;;;3.77;;
16954;SDS011;8594;52.052;8.354;2023-03-19T09:09:56;6.13;;;3.70;;
16954;SDS011;8594;52.052;8.354;2023-03-19T09:12:23;6.83;;;3.53;;
16954;SDS011;8594;52.052;8.354;2023-03-19T09:14:50;8.60;;;3.90;;
16954;SDS011;8594;52.052;8.354;2023-03-19T09:17:18;14.40;;;4.70;;
16954;SDS011;8594;52.052;8.354;2023-03-19T09:19:45;5.57;;;3.57;;
16954;SDS011;8594;52.052;8.354;2023-03-19T09:22:12;7.47;;;4.03;;
16954;SDS011;8594;52.052;8.354;2023-03-19T09:24:39;10.40;;;5.03;;
16954;SDS011;8594;52.052;8.354;2023-03-19T09:27:06;11.20;;;4.53;;
16954;SDS011;8594;52.052;8.354;2023-03-19T09:29:33;10.07;;;4.33;;
16954;SDS011;8594;52.052;8.354;2023-03-19T09:32:00;5.57;;;4.07;;
16954;SDS011;8594;52.052;8.354;2023-03-19T09:34:29;8.97;;;4.40;;
16954;SDS011;8594;52.052;8.354;2023-03-19T09:36:55;10.17;;;5.03;;
16954;SDS011;8594;52.052;8.354;2023-03-19T09:39:22;8.07;;;5.27;;
16954;SDS011;8594;52.052;8.354;2023-03-19T09:41:53;9.33;;;4.90;;
16954;SDS011;8594;52.052;8.354;2023-03-19T09:44:36;12.70;;;4.83;;
16954;SDS011;8594;52.052;8.354;2023-03-19T09:47:11;9.33;;;5.60;;
16954;SDS011;8594;52.052;8.354;2023-03-19T09:49:53;10.80;;;4.87;;
16954;SDS011;8594;52.052;8.354;2023-03-19T09:52:29;8.73;;;4.83;;
16954;SDS011;8594;52.052;8.354;2023-03-19T09:55:09;14.37;;;5.27;;
16954;SDS011;8594;52.052;8.354;2023-03-19T09:57:50;8.63;;;4.57;;
16954;SDS011;8594;52.052;8.354;2023-03-19T10:00:21;9.27;;;5.07;;
16954;SDS011;8594;52.052;8.354;2023-03-19T10:02:52;6.33;;;4.63;;
16954;SDS011;8594;52.052;8.354;2023-03-19T10:05:31;9.53;;;5.10;;
16954;SDS011;8594;52.052;8.354;2023-03-19T10:08:16;9.77;;;4.53;;
16954;SDS011;8594;52.052;8.354;2023-03-19T10:11:11;8.20;;;5.10;;
16954;SDS011;8594;52.052;8.354;2023-03-19T10:14:09;8.90;;;4.40;;
16954;SDS011;8594;52.052;8.354;2023-03-19T10:17:01;7.73;;;4.43;;
16954;SDS011;8594;52.052;8.354;2023-03-19T10:19:36;9.17;;;5.03;;
16954;SDS011;8594;52.052;8.354;2023-03-19T10:22:11;6.40;;;4.30;;
16954;SDS011;8594;52.052;8.354;2023-03-19T10:24:45;8.93;;;4.83;;
16954;SDS011;8594;52.052;8.354;2023-03-19T10:27:14;13.37;;;4.77;;
16954;SDS011;8594;52.052;8.354;2023-03-19T10:29:43;11.67;;;4.57;;
16954;SDS011;8594;52.052;8.354;2023-03-19T10:32:13;7.67;;;4.50;;
16954;SDS011;8594;52.052;8.354;2023-03-19T10:34:44;5.30;;;3.80;;
16954;SDS011;8594;52.052;8.354;2023-03-19T10:37:16;6.80;;;3.90;;
16954;SDS011;8594;52.052;8.354;2023-03-19T10:39:46;6.67;;;4.20;;
16954;SDS011;8594;52.052;8.354;2023-03-19T10:42:18;8.07;;;4.77;;
16954;SDS011;8594;52.052;8.354;2023-03-19T10:45:13;11.20;;;5.07;;
16954;SDS011;8594;52.052;8.354;2023-03-19T10:47:48;12.53;;;6.07;;
16954;SDS011;8594;52.052;8.354;2023-03-19T10:50:17;7.10;;;3.87;;
16954;SDS011;8594;52.052;8.354;2023-03-19T10:52:50;6.20;;;3.90;;
16954;SDS011;8594;52.052;8.354;2023-03-19T10:55:24;6.40;;;4.03;;
16954;SDS011;8594;52.052;8.354;2023-03-19T10:58:00;7.40;;;4.80;;
16954;SDS011;8594;52.052;8.354;2023-03-19T11:00:30;6.73;;;4.73;;
16954;SDS011;8594;52.052;8.354;2023-03-19T11:02:59;9.10;;;6.00;;
16954;SDS011;8594;52.052;8.354;2023-03-19T11:05:29;8.87;;;5.87;;
16954;SDS011;8594;52.052;8.354;2023-03-19T11:08:00;11.77;;;7.03;;
16954;SDS011;8594;52.052;8.354;2023-03-19T11:10:31;9.87;;;6.40;;
16954;SDS011;8594;52.052;8.354;2023-03-19T11:13:03;9.00;;;6.40;;
16954;SDS011;8594;52.052;8.354;2023-03-19T11:15:32;9.53;;;7.07;;
16954;SDS011;8594;52.052;8.354;2023-03-19T11:18:06;9.77;;;6.97;;
16954;SDS011;8594;52.052;8.354;2023-03-19T11:20:47;10.13;;;7.37;;
16954;SDS011;8594;52.052;8.354;2023-03-19T11:23:21;12.00;;;8.23;;
16954;SDS011;8594;52.052;8.354;2023-03-19T11:25:53;14.80;;;8.03;;
16954;SDS011;8594;52.052;8.354;2023-03-19T11:28:24;15.93;;;8.90;;
16954;SDS011;8594;52.052;8.354;2023-03-19T11:30:57;14.53;;;9.73;;
16954;SDS011;8594;52.052;8.354;2023-03-19T11:33:46;15.23;;;10.37;;
16954;SDS011;8594;52.052;8.354;2023-03-19T11:36:27;10.87;;;7.87;;
16954;SDS011;8594;52.052;8.354;2023-03-19T11:39:09;11.47;;;8.07;;
16954;SDS011;8594;52.052;8.354;2023-03-19T11:41:52;12.17;;;8.23;;
16954;SDS011;8594;52.052;8.354;2023-03-19T11:44:55;11.90;;;8.33;;
16954;SDS011;8594;52.052;8.354;2023-03-19T11:47:38;11.40;;;7.73;;
16954;SDS011;8594;52.052;8.354;2023-03-19T11:50:20;12.73;;;8.63;;
16954;SDS011;8594;52.052;8.354;2023-03-19T11:53:11;12.03;;;8.93;;
16954;SDS011;8594;52.052;8.354;2023-03-19T11:55:56;18.50;;;9.80;;
16954;SDS011;8594;52.052;8.354;2023-03-19T12:01:59;23.03;;;13.30;;
16954;SDS011;8594;52.052;8.354;2023-03-19T12:05:09;17.30;;;11.10;;
16954;SDS011;8594;52.052;8.354;2023-03-19T12:07:49;18.67;;;10.73;;
16954;SDS011;8594;52.052;8.354;2023-03-19T12:10:38;16.77;;;11.10;;
16954;SDS011;8594;52.052;8.354;2023-03-19T12:13:24;17.83;;;11.10;;
16954;SDS011;8594;52.052;8.354;2023-03-19T12:16:04;20.13;;;12.30;;
16954;SDS011;8594;52.052;8.354;2023-03-19T12:18:54;17.43;;;11.50;;
16954;SDS011;8594;52.052;8.354;2023-03-19T12:21:40;17.93;;;11.57;;
16954;SDS011;8594;52.052;8.354;2023-03-19T12:24:24;19.53;;;10.63;;
16954;SDS011;8594;52.052;8.354;2023-03-19T12:27:07;17.20;;;10.40;;
16954;SDS011;8594;52.052;8.354;2023-03-19T12:29:54;19.60;;;10.63;;
16954;SDS011;8594;52.052;8.354;2023-03-19T12:32:34;18.30;;;10.50;;
16954;SDS011;8594;52.052;8.354;2023-03-19T12:35:23;18.23;;;10.30;;
16954;SDS011;8594;52.052;8.354;2023-03-19T12:37:58;19.13;;;9.87;;
16954;SDS011;8594;52.052;8.354;2023-03-19T12:40:33;20.00;;;10.83;;
16954;SDS011;8594;52.052;8.354;2023-03-19T12:43:11;19.73;;;10.80;;
16954;SDS011;8594;52.052;8.354;2023-03-19T12:45:51;77.97;;;35.67;;
16954;SDS011;8594;52.052;8.354;2023-03-19T12:48:26;18.47;;;10.00;;
16954;SDS011;8594;52.052;8.354;2023-03-19T12:51:01;18.77;;;10.77;;
16954;SDS011;8594;52.052;8.354;2023-03-19T12:53:34;21.03;;;11.67;;
16954;SDS011;8594;52.052;8.354;2023-03-19T12:56:15;20.93;;;11.43;;
16954;SDS011;8594;52.052;8.354;2023-03-19T12:58:51;21.73;;;11.27;;
16954;SDS011;8594;52.052;8.354;2023-03-19T13:01:27;23.80;;;15.00;;
16954;SDS011;8594;52.052;8.354;2023-03-19T13:04:01;19.03;;;11.07;;
16954;SDS011;8594;52.052;8.354;2023-03-19T13:06:36;19.53;;;11.43;;
16954;SDS011;8594;52.052;8.354;2023-03-19T13:09:10;19.43;;;10.17;;
16954;SDS011;8594;52.052;8.354;2023-03-19T13:11:45;19.47;;;11.10;;
16954;SDS011;8594;52.052;8.354;2023-03-19T13:14:21;20.77;;;10.70;;
16954;SDS011;8594;52.052;8.354;2023-03-19T13:17:01;18.47;;;10.40;;
16954;SDS011;8594;52.052;8.354;2023-03-19T13:19:42;18.83;;;10.47;;
16954;SDS011;8594;52.052;8.354;2023-03-19T13:22:16;20.17;;;9.87;;
16954;SDS011;8594;52.052;8.354;2023-03-19T13:24:47;14.47;;;8.73;;
16954;SDS011;8594;52.052;8.354;2023-03-19T13:27:18;15.43;;;9.17;;
16954;SDS011;8594;52.052;8.354;2023-03-19T13:29:52;17.37;;;9.83;;
16954;SDS011;8594;52.052;8.354;2023-03-19T13:32:33;20.30;;;9.50;;
16954;SDS011;8594;52.052;8.354;2023-03-19T13:35:22;16.50;;;10.07;;
16954;SDS011;8594;52.052;8.354;2023-03-19T13:37:58;14.57;;;9.60;;
16954;SDS011;8594;52.052;8.354;2023-03-19T13:40:37;17.33;;;9.87;;
16954;SDS011;8594;52.052;8.354;2023-03-19T13:49:23;17.20;;;9.70;;
16954;SDS011;8594;52.052;8.354;2023-03-19T13:51:58;14.60;;;8.77;;
16954;SDS011;8594;52.052;8.354;2023-03-19T13:54:33;13.90;;;8.17;;
16954;SDS011;8594;52.052;8.354;2023-03-19T13:57:05;14.40;;;8.53;;
16954;SDS011;8594;52.052;8.354;2023-03-19T13:59:57;14.80;;;8.57;;
16954;SDS011;8594;52.052;8.354;2023-03-19T14:03:23;11.23;;;8.30;;
16954;SDS011;8594;52.052;8.354;2023-03-19T14:05:55;9.80;;;7.23;;
16954;SDS011;8594;52.052;8.354;2023-03-19T14:08:23;10.53;;;7.60;;
16954;SDS011;8594;52.052;8.354;2023-03-19T14:10:56;11.30;;;7.57;;
16954;SDS011;8594;52.052;8.354;2023-03-19T14:13:30;11.60;;;7.43;;
16954;SDS011;8594;52.052;8.354;2023-03-19T14:16:05;12.47;;;7.70;;
16954;SDS011;8594;52.052;8.354;2023-03-19T14:18:41;11.87;;;7.60;;
16954;SDS011;8594;52.052;8.354;2023-03-19T14:21:13;10.60;;;7.10;;
16954;SDS011;8594;52.052;8.354;2023-03-19T14:23:50;9.83;;;7.37;;
16954;SDS011;8594;52.052;8.354;2023-03-19T14:26:20;8.13;;;6.03;;
16954;SDS011;8594;52.052;8.354;2023-03-19T14:28:56;9.33;;;6.13;;
16954;SDS011;8594;52.052;8.354;2023-03-19T14:31:30;9.50;;;6.80;;
16954;SDS011;8594;52.052;8.354;2023-03-19T14:34:06;9.60;;;6.50;;
16954;SDS011;8594;52.052;8.354;2023-03-19T14:36:48;9.27;;;6.43;;
16954;SDS011;8594;52.052;8.354;2023-03-19T14:39:22;10.70;;;6.67;;
16954;SDS011;8594;52.052;8.354;2023-03-19T14:41:54;10.33;;;6.50;;
16954;SDS011;8594;52.052;8.354;2023-03-19T14:47:56;9.63;;;5.93;;
16954;SDS011;8594;52.052;8.354;2023-03-19T14:53:50;8.17;;;5.20;;
16954;SDS011;8594;52.052;8.354;2023-03-19T14:56:23;10.10;;;6.20;;
16954;SDS011;8594;52.052;8.354;2023-03-19T14:58:56;7.67;;;5.60;;
16954;SDS011;8594;52.052;8.354;2023-03-19T15:01:28;8.57;;;5.40;;
16954;SDS011;8594;52.052;8.354;2023-03-19T15:03:58;8.00;;;5.53;;
16954;SDS011;8594;52.052;8.354;2023-03-19T15:06:30;6.67;;;5.03;;
16954;SDS011;8594;52.052;8.354;2023-03-19T15:09:01;7.37;;;5.73;;
16954;SDS011;8594;52.052;8.354;2023-03-19T15:11:39;7.80;;;5.63;;
16954;SDS011;8594;52.052;8.354;2023-03-19T15:17:33;11.17;;;8.17;;
16954;SDS011;8594;52.052;8.354;2023-03-19T15:20:02;11.20;;;8.43;;
16954;SDS011;8594;52.052;8.354;2023-03-19T15:22:43;13.47;;;9.33;;
16954;SDS011;8594;52.052;8.354;2023-03-19T15:25:20;14.90;;;10.17;;
16954;SDS011;8594;52.052;8.354;2023-03-19T15:28:02;13.53;;;10.53;;
16954;SDS011;8594;52.052;8.354;2023-03-19T15:30:35;15.13;;;10.70;;
16954;SDS011;8594;52.052;8.354;2023-03-19T15:33:03;16.90;;;12.33;;
16954;SDS011;8594;52.052;8.354;2023-03-19T15:35:41;17.20;;;12.47;;
16954;SDS011;8594;52.052;8.354;2023-03-19T15:38:09;18.23;;;13.33;;